Airfield :
LOGIN :

Register | Disclaimer

   EN    FR    IT 

 










Legend :    VFR   Marginal VFR   IFR   Intensive IFR   Very Intensive IFR
Visi :
Ceiling :
>= 8 km
>= 3000ft
5 to 8 km
1000 to 3000 ft
1500m to 5 km
500 to 1000 ft
800 to 1500m
200 to 500 ft
< 800m
< 200 ft
Symbols :   Thunderstorms  Fog  Heavy snow  Heavy precipitations  Wind > 20 kt
SIGMETs :     Misc.  Thunderstorms  Icing  Turbulence  Mountain Waves  Volcanic Ashes






- Airport Elevation : 978 ft
- IATA code : LNZ


LOWL - Linz

CURRENT METAR :
  • 152020Z AUTO 08014G26KT 9999 FEW190 SCT230 12/07 Q1002 NOSIG

EXPIRED METARs :
  • 151950Z AUTO 09017KT 9999 FEW070 BKN190 12/06 Q1001 NOSIG
  • 151920Z AUTO 07010KT 9999 FEW070 BKN090 12/06 Q1002 NOSIG
  • 151850Z AUTO 05009KT 9999 FEW070 BKN080 11/06 Q1002 NOSIG
  • 151820Z AUTO 07012KT 040V100 9999 FEW080 SCT090 12/06 Q1002 NOSIG
  • 151750Z AUTO 08013KT 9999 FEW080 12/06 Q1002 NOSIG

TAF TAF LOWL
Valid from the 15 at 18:00 until the 16 at 18:00 UTC


151715Z 1518/1618 11010KT CAVOK TX09/1518Z TN06/1607Z
TEMPO 1518/1520 09015KT
BECMG 1600/1603 28005KT 9999 SCT020 BKN130
PROB30
TEMPO 1604/1613 VRB02KT 4000 BR BKN010



MET'MAP, your aeronautical weather chart ! - Copyright ORBIFLY December 2007 - Disclaimer

ORBIFLY MET'MAP TEAM :

Programming & Development : Alexandra Zaïnal
Concept & Development : Baudouin d'Aumeries
Co-Development & Prog : Marc-Olivier Méhu
Technical & hardware support : Manuel Goepfert

Contact : metmap@orbifly.com




SOURCES & CREDITS :

   NOAA